メインページ
METAR-TAF:

METAR-TAF

空港 :

ジブチ, ジブチ

ジブチ国際空港

緯度: 11-33N, 経度: 043-10E, 海抜: 49m

現時点の気象観測

当レポートは18時間6分前の11:00(UTC)に作成
の風 12kt
気温 34°C
湿度 60%
気圧 1010 hPa
視程10km以上
高度2300ftの雲はほとんどない

METAR: HDAM 201100Z 08012KT 9999 FEW023 34/25 Q1010

時間: 08:06 (05:06 UTC)

予報

当レポートは12時間6分前の17:00(UTC)に作成
予報は20日の 18時(UTC)から 21日の 18時(UTC)まで有効
変向風 3kt
視程10km以上
高度2000ftの雲はほとんどない
21日の 00時(UTC)から 21日の 06時(UTC)まで徐々に
の風 kt
高度2000ftの雲は散在している
21日の 06時(UTC)から 21日の 12時(UTC)まで徐々に
の風 10kt
高度2300ftの雲はほとんどない
高度3000ftの雲はほとんどない, 積乱雲.

TAF: HDAM 201700Z 2018/2118 VRB03KT 9999 FEW020 BECMG 2100/2106 00000KT SCT020 BECMG 2106/2112 08010KT FEW023 FEW030CB

4,000以上の空港の気象観測と天気予報(METAR報とTAF報)

利用可能な観測所は地図上に黄色い丸と赤い丸で示す。

丸の上にカーソルを重ねると観測所名を参照できる。

次にクリックすると気象観測と天気予報を参照できる。

マップの切り替え:黒色「×」印の緑ボタンをクリックして拡大、「-」印の緑ボタンをクリックして縮小、緑色の三角印をクリックして隣りの地図に切り替え


METAR-TAF: